sensor_id;sensor_type;location;lat;lon;timestamp;pressure;altitude;pressure_sealevel;temperature;humidity
13478;BME280;12598;62.382;17.344;2023-03-04T00:00:59;100083.78;;;17.01;17.79
13478;BME280;12598;62.382;17.344;2023-03-04T00:02:01;100095.75;;;16.97;17.33
13478;BME280;12598;62.382;17.344;2023-03-04T00:03:03;100078.97;;;16.87;17.53
13478;BME280;12598;62.382;17.344;2023-03-04T00:04:05;100107.41;;;16.96;17.69
13478;BME280;12598;62.382;17.344;2023-03-04T00:05:07;100092.56;;;16.94;17.38
13478;BME280;12598;62.382;17.344;2023-03-04T00:06:09;100097.03;;;16.93;17.65
13478;BME280;12598;62.382;17.344;2023-03-04T00:07:11;100093.03;;;16.89;17.76
13478;BME280;12598;62.382;17.344;2023-03-04T00:08:17;100094.88;;;16.89;17.73
13478;BME280;12598;62.382;17.344;2023-03-04T00:09:19;100108.34;;;16.87;17.79
13478;BME280;12598;62.382;17.344;2023-03-04T00:10:21;100097.63;;;16.79;17.53
13478;BME280;12598;62.382;17.344;2023-03-04T00:11:23;100090.75;;;16.77;17.72
13478;BME280;12598;62.382;17.344;2023-03-04T00:12:25;100088.19;;;16.67;17.74
13478;BME280;12598;62.382;17.344;2023-03-04T00:13:26;100107.63;;;16.77;17.91
13478;BME280;12598;62.382;17.344;2023-03-04T00:14:28;100111.41;;;16.75;17.63
13478;BME280;12598;62.382;17.344;2023-03-04T00:15:31;100095.53;;;16.65;17.50
13478;BME280;12598;62.382;17.344;2023-03-04T00:16:32;100121.09;;;16.76;17.57
13478;BME280;12598;62.382;17.344;2023-03-04T00:17:34;100110.59;;;16.74;17.98
13478;BME280;12598;62.382;17.344;2023-03-04T00:18:36;100099.19;;;16.64;18.13
13478;BME280;12598;62.382;17.344;2023-03-04T00:19:38;100110.91;;;16.71;17.93
13478;BME280;12598;62.382;17.344;2023-03-04T00:20:40;100110.06;;;16.71;17.73
13478;BME280;12598;62.382;17.344;2023-03-04T00:21:42;100104.88;;;16.69;17.79
13478;BME280;12598;62.382;17.344;2023-03-04T00:22:44;100117.56;;;16.67;17.75
13478;BME280;12598;62.382;17.344;2023-03-04T00:23:48;100104.22;;;16.67;17.98
13478;BME280;12598;62.382;17.344;2023-03-04T00:24:50;100099.63;;;16.60;17.91
13478;BME280;12598;62.382;17.344;2023-03-04T00:25:52;100090.94;;;16.58;17.88
13478;BME280;12598;62.382;17.344;2023-03-04T00:26:54;100092.63;;;16.59;17.96
13478;BME280;12598;62.382;17.344;2023-03-04T00:27:56;100105.50;;;16.63;17.90
13478;BME280;12598;62.382;17.344;2023-03-04T00:28:59;100110.16;;;16.61;17.80
13478;BME280;12598;62.382;17.344;2023-03-04T00:30:02;100104.44;;;16.56;17.90
13478;BME280;12598;62.382;17.344;2023-03-04T00:31:05;100103.91;;;16.53;17.75
13478;BME280;12598;62.382;17.344;2023-03-04T00:32:07;100102.47;;;16.58;17.60
13478;BME280;12598;62.382;17.344;2023-03-04T00:33:09;100101.63;;;16.58;17.81
13478;BME280;12598;62.382;17.344;2023-03-04T00:34:11;100116.78;;;16.57;17.85
13478;BME280;12598;62.382;17.344;2023-03-04T00:35:13;100107.03;;;16.48;17.86
13478;BME280;12598;62.382;17.344;2023-03-04T00:36:15;100119.75;;;16.54;17.80
13478;BME280;12598;62.382;17.344;2023-03-04T00:37:17;100112.66;;;16.45;18.13
13478;BME280;12598;62.382;17.344;2023-03-04T00:38:19;100113.72;;;16.52;17.92
13478;BME280;12598;62.382;17.344;2023-03-04T00:39:21;100110.38;;;16.50;17.98
13478;BME280;12598;62.382;17.344;2023-03-04T00:40:23;100103.00;;;16.44;18.19
13478;BME280;12598;62.382;17.344;2023-03-04T00:41:25;100114.53;;;16.45;18.07
13478;BME280;12598;62.382;17.344;2023-03-04T00:42:27;100112.84;;;16.44;18.05
13478;BME280;12598;62.382;17.344;2023-03-04T00:43:29;100102.63;;;16.39;17.96
13478;BME280;12598;62.382;17.344;2023-03-04T00:44:32;100105.59;;;16.36;18.19
13478;BME280;12598;62.382;17.344;2023-03-04T00:45:33;100104.47;;;16.39;17.76
13478;BME280;12598;62.382;17.344;2023-03-04T00:46:35;100113.53;;;16.46;18.00
13478;BME280;12598;62.382;17.344;2023-03-04T00:47:37;100120.00;;;16.43;17.98
13478;BME280;12598;62.382;17.344;2023-03-04T00:48:39;100121.66;;;16.44;17.98
13478;BME280;12598;62.382;17.344;2023-03-04T00:49:41;100113.59;;;16.36;18.10
13478;BME280;12598;62.382;17.344;2023-03-04T00:50:43;100132.66;;;16.41;17.89
13478;BME280;12598;62.382;17.344;2023-03-04T00:51:45;100119.75;;;16.37;17.78
13478;BME280;12598;62.382;17.344;2023-03-04T00:52:47;100130.97;;;16.40;17.81
13478;BME280;12598;62.382;17.344;2023-03-04T00:53:49;100110.25;;;16.34;17.88
13478;BME280;12598;62.382;17.344;2023-03-04T00:54:53;100143.63;;;16.38;17.59
13478;BME280;12598;62.382;17.344;2023-03-04T00:55:54;100124.94;;;16.38;17.67
13478;BME280;12598;62.382;17.344;2023-03-04T00:56:56;100137.59;;;16.36;17.82
13478;BME280;12598;62.382;17.344;2023-03-04T00:57:58;100127.91;;;16.35;17.44
13478;BME280;12598;62.382;17.344;2023-03-04T00:59:00;100122.59;;;16.35;17.83
13478;BME280;12598;62.382;17.344;2023-03-04T01:00:03;100115.69;;;16.33;17.76
13478;BME280;12598;62.382;17.344;2023-03-04T01:01:06;100112.13;;;16.25;17.95
13478;BME280;12598;62.382;17.344;2023-03-04T01:02:09;100118.56;;;16.22;17.77
13478;BME280;12598;62.382;17.344;2023-03-04T01:03:11;100125.16;;;16.27;17.99
13478;BME280;12598;62.382;17.344;2023-03-04T01:04:13;100120.50;;;16.29;17.79
13478;BME280;12598;62.382;17.344;2023-03-04T01:05:15;100121.78;;;16.26;18.04
13478;BME280;12598;62.382;17.344;2023-03-04T01:06:17;100107.53;;;16.17;17.91
13478;BME280;12598;62.382;17.344;2023-03-04T01:07:19;100118.97;;;16.27;18.04
13478;BME280;12598;62.382;17.344;2023-03-04T01:08:21;100120.81;;;16.27;18.01
13478;BME280;12598;62.382;17.344;2023-03-04T01:09:23;100111.72;;;16.20;17.89
13478;BME280;12598;62.382;17.344;2023-03-04T01:10:27;100132.47;;;16.26;17.75
13478;BME280;12598;62.382;17.344;2023-03-04T01:11:29;100109.63;;;16.14;17.76
13478;BME280;12598;62.382;17.344;2023-03-04T01:12:31;100114.91;;;16.23;17.67
13478;BME280;12598;62.382;17.344;2023-03-04T01:13:33;100110.44;;;16.24;17.66
13478;BME280;12598;62.382;17.344;2023-03-04T01:14:35;100124.75;;;16.23;17.92
13478;BME280;12598;62.382;17.344;2023-03-04T01:15:37;100113.41;;;16.21;18.16
13478;BME280;12598;62.382;17.344;2023-03-04T01:16:39;100135.56;;;16.21;17.71
13478;BME280;12598;62.382;17.344;2023-03-04T01:17:41;100115.97;;;16.13;17.57
13478;BME280;12598;62.382;17.344;2023-03-04T01:18:43;100125.22;;;16.18;18.03
13478;BME280;12598;62.382;17.344;2023-03-04T01:19:45;100120.72;;;16.19;17.46
13478;BME280;12598;62.382;17.344;2023-03-04T01:20:48;100122.72;;;16.17;17.79
13478;BME280;12598;62.382;17.344;2023-03-04T01:21:50;100096.31;;;16.14;17.67
13478;BME280;12598;62.382;17.344;2023-03-04T01:22:51;100120.19;;;16.15;17.52
13478;BME280;12598;62.382;17.344;2023-03-04T01:23:53;100130.84;;;16.15;17.64
13478;BME280;12598;62.382;17.344;2023-03-04T01:24:55;100133.66;;;16.14;17.43
13478;BME280;12598;62.382;17.344;2023-03-04T01:25:57;100124.13;;;16.11;17.63
13478;BME280;12598;62.382;17.344;2023-03-04T01:26:59;100116.75;;;16.05;17.64
13478;BME280;12598;62.382;17.344;2023-03-04T01:28:01;100127.78;;;16.10;17.76
13478;BME280;12598;62.382;17.344;2023-03-04T01:29:02;100136.63;;;16.11;17.57
13478;BME280;12598;62.382;17.344;2023-03-04T01:30:05;100131.44;;;16.09;17.83
13478;BME280;12598;62.382;17.344;2023-03-04T01:31:07;100134.13;;;16.09;17.86
13478;BME280;12598;62.382;17.344;2023-03-04T01:32:09;100113.53;;;16.02;17.79
13478;BME280;12598;62.382;17.344;2023-03-04T01:33:11;100118.84;;;16.02;17.72
13478;BME280;12598;62.382;17.344;2023-03-04T01:34:13;100112.22;;;16.06;17.68
13478;BME280;12598;62.382;17.344;2023-03-04T01:35:15;100118.56;;;16.05;17.81
13478;BME280;12598;62.382;17.344;2023-03-04T01:36:17;100119.53;;;16.04;17.67
13478;BME280;12598;62.382;17.344;2023-03-04T01:37:18;100117.72;;;16.04;17.30
13478;BME280;12598;62.382;17.344;2023-03-04T01:38:20;100117.88;;;16.03;17.84
13478;BME280;12598;62.382;17.344;2023-03-04T01:39:22;100121.53;;;16.02;17.51
13478;BME280;12598;62.382;17.344;2023-03-04T01:40:25;100134.84;;;16.02;17.46
13478;BME280;12598;62.382;17.344;2023-03-04T01:41:28;100122.50;;;16.01;17.87
13478;BME280;12598;62.382;17.344;2023-03-04T01:42:33;100122.81;;;15.98;17.74
13478;BME280;12598;62.382;17.344;2023-03-04T01:43:36;100133.47;;;15.98;17.87
13478;BME280;12598;62.382;17.344;2023-03-04T01:44:38;100129.81;;;15.99;17.98
13478;BME280;12598;62.382;17.344;2023-03-04T01:45:40;100120.56;;;15.93;17.63
13478;BME280;12598;62.382;17.344;2023-03-04T01:46:47;100145.28;;;15.95;17.50
13478;BME280;12598;62.382;17.344;2023-03-04T01:47:51;100128.13;;;15.98;17.76
13478;BME280;12598;62.382;17.344;2023-03-04T01:48:53;100132.78;;;15.96;18.03
13478;BME280;12598;62.382;17.344;2023-03-04T01:49:56;100140.91;;;15.94;17.60
13478;BME280;12598;62.382;17.344;2023-03-04T01:50:59;100135.75;;;15.93;17.22
13478;BME280;12598;62.382;17.344;2023-03-04T01:52:07;100110.97;;;15.83;17.57
13478;BME280;12598;62.382;17.344;2023-03-04T01:53:18;100139.09;;;15.95;17.84
13478;BME280;12598;62.382;17.344;2023-03-04T01:54:21;100134.75;;;15.94;17.38
13478;BME280;12598;62.382;17.344;2023-03-04T01:55:23;100138.03;;;15.88;17.38
13478;BME280;12598;62.382;17.344;2023-03-04T01:56:34;100141.09;;;15.93;17.56
13478;BME280;12598;62.382;17.344;2023-03-04T01:57:38;100144.75;;;15.92;17.72
13478;BME280;12598;62.382;17.344;2023-03-04T01:58:40;100149.22;;;15.91;17.63
13478;BME280;12598;62.382;17.344;2023-03-04T01:59:43;100133.28;;;15.82;17.89
13478;BME280;12598;62.382;17.344;2023-03-04T02:00:45;100137.47;;;15.84;17.62
13478;BME280;12598;62.382;17.344;2023-03-04T02:01:59;100159.34;;;15.88;17.86
13478;BME280;12598;62.382;17.344;2023-03-04T02:03:07;100158.50;;;15.87;17.58
13478;BME280;12598;62.382;17.344;2023-03-04T02:04:10;100163.84;;;15.87;17.65
13478;BME280;12598;62.382;17.344;2023-03-04T02:05:13;100159.66;;;15.85;17.77
13478;BME280;12598;62.382;17.344;2023-03-04T02:06:15;100160.66;;;15.84;17.68
13478;BME280;12598;62.382;17.344;2023-03-04T02:07:17;100167.94;;;15.82;17.78
13478;BME280;12598;62.382;17.344;2023-03-04T02:08:21;100161.06;;;15.79;17.70
13478;BME280;12598;62.382;17.344;2023-03-04T02:09:23;100164.44;;;15.81;17.86
13478;BME280;12598;62.382;17.344;2023-03-04T02:10:25;100148.72;;;15.78;17.64
13478;BME280;12598;62.382;17.344;2023-03-04T02:11:27;100148.75;;;15.69;17.74
13478;BME280;12598;62.382;17.344;2023-03-04T02:12:29;100150.31;;;15.71;17.58
13478;BME280;12598;62.382;17.344;2023-03-04T02:13:32;100168.38;;;15.77;17.89
13478;BME280;12598;62.382;17.344;2023-03-04T02:14:37;100174.69;;;15.76;17.58
13478;BME280;12598;62.382;17.344;2023-03-04T02:15:39;100154.22;;;15.77;17.58
13478;BME280;12598;62.382;17.344;2023-03-04T02:16:43;100151.69;;;15.75;17.56
13478;BME280;12598;62.382;17.344;2023-03-04T02:17:45;100158.00;;;15.74;17.73
13478;BME280;12598;62.382;17.344;2023-03-04T02:18:46;100169.53;;;15.75;17.67
13478;BME280;12598;62.382;17.344;2023-03-04T02:21:26;100154.91;;;15.79;17.43
13478;BME280;12598;62.382;17.344;2023-03-04T02:22:30;100163.91;;;15.78;17.67
13478;BME280;12598;62.382;17.344;2023-03-04T02:24:50;100158.00;;;15.74;17.88
13478;BME280;12598;62.382;17.344;2023-03-04T02:26:12;100158.88;;;15.75;17.75
13478;BME280;12598;62.382;17.344;2023-03-04T02:27:14;100142.75;;;15.67;17.62
13478;BME280;12598;62.382;17.344;2023-03-04T02:28:16;100176.81;;;15.73;17.54
13478;BME280;12598;62.382;17.344;2023-03-04T02:29:19;100134.81;;;15.57;17.53
13478;BME280;12598;62.382;17.344;2023-03-04T02:30:22;100173.75;;;15.68;17.50
13478;BME280;12598;62.382;17.344;2023-03-04T02:31:34;100130.22;;;15.50;17.56
13478;BME280;12598;62.382;17.344;2023-03-04T02:32:37;100157.75;;;15.68;17.22
13478;BME280;12598;62.382;17.344;2023-03-04T02:33:39;100150.75;;;15.67;17.49
13478;BME280;12598;62.382;17.344;2023-03-04T02:34:46;100159.88;;;15.64;17.71
13478;BME280;12598;62.382;17.344;2023-03-04T02:35:49;100165.22;;;15.64;17.62
13478;BME280;12598;62.382;17.344;2023-03-04T02:36:52;100159.31;;;15.61;17.29
13478;BME280;12598;62.382;17.344;2023-03-04T02:37:54;100161.16;;;15.60;17.45
13478;BME280;12598;62.382;17.344;2023-03-04T02:39:04;100162.00;;;15.61;17.47
13478;BME280;12598;62.382;17.344;2023-03-04T02:40:19;100135.25;;;15.53;17.41
13478;BME280;12598;62.382;17.344;2023-03-04T02:41:24;100166.19;;;15.63;17.30
13478;BME280;12598;62.382;17.344;2023-03-04T02:42:26;100161.16;;;15.60;17.56
13478;BME280;12598;62.382;17.344;2023-03-04T02:43:28;100171.97;;;15.59;17.48
13478;BME280;12598;62.382;17.344;2023-03-04T02:44:33;100164.25;;;15.56;17.75
13478;BME280;12598;62.382;17.344;2023-03-04T02:46:43;100155.28;;;15.57;17.47
13478;BME280;12598;62.382;17.344;2023-03-04T02:47:46;100156.97;;;15.48;17.68
13478;BME280;12598;62.382;17.344;2023-03-04T02:48:49;100168.06;;;15.53;17.47
13478;BME280;12598;62.382;17.344;2023-03-04T02:49:51;100160.34;;;15.50;17.31
13478;BME280;12598;62.382;17.344;2023-03-04T02:50:55;100155.56;;;15.54;17.24
13478;BME280;12598;62.382;17.344;2023-03-04T02:52:00;100164.69;;;15.51;17.77
13478;BME280;12598;62.382;17.344;2023-03-04T02:53:03;100171.84;;;15.51;17.72
13478;BME280;12598;62.382;17.344;2023-03-04T02:54:17;100168.19;;;15.52;17.54
13478;BME280;12598;62.382;17.344;2023-03-04T02:55:19;100181.53;;;15.52;17.55
13478;BME280;12598;62.382;17.344;2023-03-04T02:56:22;100146.09;;;15.42;17.48
13478;BME280;12598;62.382;17.344;2023-03-04T02:57:24;100159.50;;;15.50;17.26
13478;BME280;12598;62.382;17.344;2023-03-04T02:58:28;100162.31;;;15.48;17.65
13478;BME280;12598;62.382;17.344;2023-03-04T02:59:31;100154.78;;;15.44;17.88
13478;BME280;12598;62.382;17.344;2023-03-04T03:00:33;100162.47;;;15.47;17.44
13478;BME280;12598;62.382;17.344;2023-03-04T03:01:35;100168.78;;;15.46;17.67
13478;BME280;12598;62.382;17.344;2023-03-04T03:02:37;100166.94;;;15.46;17.79
13478;BME280;12598;62.382;17.344;2023-03-04T03:03:39;100176.09;;;15.44;17.45
13478;BME280;12598;62.382;17.344;2023-03-04T03:04:41;100154.66;;;15.36;17.70
13478;BME280;12598;62.382;17.344;2023-03-04T03:05:46;100170.88;;;15.42;17.47
13478;BME280;12598;62.382;17.344;2023-03-04T03:06:49;100153.38;;;15.40;17.66
13478;BME280;12598;62.382;17.344;2023-03-04T03:07:51;100150.44;;;15.43;17.97
13478;BME280;12598;62.382;17.344;2023-03-04T03:08:53;100164.72;;;15.42;17.61
13478;BME280;12598;62.382;17.344;2023-03-04T03:09:55;100165.72;;;15.41;17.47
13478;BME280;12598;62.382;17.344;2023-03-04T03:10:57;100152.41;;;15.41;17.47
13478;BME280;12598;62.382;17.344;2023-03-04T03:11:59;100146.22;;;15.40;17.53
13478;BME280;12598;62.382;17.344;2023-03-04T03:13:03;100161.38;;;15.40;17.48
13478;BME280;12598;62.382;17.344;2023-03-04T03:14:06;100169.38;;;15.40;17.54
13478;BME280;12598;62.382;17.344;2023-03-04T03:15:08;100158.03;;;15.38;17.82
13478;BME280;12598;62.382;17.344;2023-03-04T03:16:10;100165.03;;;15.39;17.57
13478;BME280;12598;62.382;17.344;2023-03-04T03:17:12;100173.31;;;15.36;17.63
13478;BME280;12598;62.382;17.344;2023-03-04T03:18:14;100176.66;;;15.38;17.59
13478;BME280;12598;62.382;17.344;2023-03-04T03:19:16;100177.66;;;15.37;17.25
13478;BME280;12598;62.382;17.344;2023-03-04T03:20:18;100175.00;;;15.37;17.73
13478;BME280;12598;62.382;17.344;2023-03-04T03:21:20;100176.53;;;15.30;17.72
13478;BME280;12598;62.382;17.344;2023-03-04T03:22:23;100183.97;;;15.36;17.81
13478;BME280;12598;62.382;17.344;2023-03-04T03:23:25;100181.44;;;15.34;17.69
13478;BME280;12598;62.382;17.344;2023-03-04T03:24:27;100185.94;;;15.34;17.93
13478;BME280;12598;62.382;17.344;2023-03-04T03:25:29;100196.59;;;15.34;17.57
13478;BME280;12598;62.382;17.344;2023-03-04T03:26:31;100205.56;;;15.33;17.39
13478;BME280;12598;62.382;17.344;2023-03-04T03:27:33;100200.22;;;15.33;17.55
13478;BME280;12598;62.382;17.344;2023-03-04T03:28:35;100198.41;;;15.33;17.62
13478;BME280;12598;62.382;17.344;2023-03-04T03:29:37;100198.56;;;15.32;17.61
13478;BME280;12598;62.382;17.344;2023-03-04T03:30:41;100215.34;;;15.32;17.30
13478;BME280;12598;62.382;17.344;2023-03-04T03:31:43;100221.53;;;15.33;18.04
13478;BME280;12598;62.382;17.344;2023-03-04T03:32:45;100216.47;;;15.30;17.69
13478;BME280;12598;62.382;17.344;2023-03-04T03:33:47;100212.00;;;15.30;17.63
13478;BME280;12598;62.382;17.344;2023-03-04T03:34:48;100221.78;;;15.30;17.46
13478;BME280;12598;62.382;17.344;2023-03-04T03:35:51;100212.84;;;15.31;17.79
13478;BME280;12598;62.382;17.344;2023-03-04T03:36:54;100211.16;;;15.30;17.44
13478;BME280;12598;62.382;17.344;2023-03-04T03:37:55;100213.81;;;15.30;17.75
13478;BME280;12598;62.382;17.344;2023-03-04T03:38:57;100211.41;;;15.27;17.52
13478;BME280;12598;62.382;17.344;2023-03-04T03:39:59;100215.34;;;15.23;17.96
13478;BME280;12598;62.382;17.344;2023-03-04T03:41:01;100211.41;;;15.27;18.04
13478;BME280;12598;62.382;17.344;2023-03-04T03:42:03;100207.78;;;15.28;17.42
13478;BME280;12598;62.382;17.344;2023-03-04T03:43:05;100218.44;;;15.28;17.81
13478;BME280;12598;62.382;17.344;2023-03-04T03:44:07;100223.88;;;15.26;17.74
13478;BME280;12598;62.382;17.344;2023-03-04T03:45:09;100218.69;;;15.25;17.46
13478;BME280;12598;62.382;17.344;2023-03-04T03:46:11;100210.69;;;15.25;17.78
13478;BME280;12598;62.382;17.344;2023-03-04T03:47:13;100213.38;;;15.25;18.07
13478;BME280;12598;62.382;17.344;2023-03-04T03:48:15;100227.66;;;15.24;17.95
13478;BME280;12598;62.382;17.344;2023-03-04T03:49:16;100218.69;;;15.25;17.84
13478;BME280;12598;62.382;17.344;2023-03-04T03:50:18;100225.00;;;15.24;17.86
13478;BME280;12598;62.382;17.344;2023-03-04T03:51:20;100222.78;;;15.19;18.01
13478;BME280;12598;62.382;17.344;2023-03-04T03:52:22;100211.97;;;15.21;18.01
13478;BME280;12598;62.382;17.344;2023-03-04T03:53:24;100220.66;;;15.23;17.93
13478;BME280;12598;62.382;17.344;2023-03-04T03:54:26;100225.97;;;15.23;17.98
13478;BME280;12598;62.382;17.344;2023-03-04T03:55:27;100236.63;;;15.23;17.98
13478;BME280;12598;62.382;17.344;2023-03-04T03:56:29;100231.31;;;15.23;18.17
13478;BME280;12598;62.382;17.344;2023-03-04T03:57:31;100219.84;;;15.22;17.48
13478;BME280;12598;62.382;17.344;2023-03-04T03:58:33;100209.19;;;15.22;17.58
13478;BME280;12598;62.382;17.344;2023-03-04T03:59:35;100226.16;;;15.21;17.92
13478;BME280;12598;62.382;17.344;2023-03-04T04:00:37;100236.63;;;15.23;17.90
13478;BME280;12598;62.382;17.344;2023-03-04T04:01:39;100233.97;;;15.23;18.20
13478;BME280;12598;62.382;17.344;2023-03-04T04:02:41;100226.16;;;15.21;18.00
13478;BME280;12598;62.382;17.344;2023-03-04T04:03:43;100234.97;;;15.22;17.92
13478;BME280;12598;62.382;17.344;2023-03-04T04:04:45;100210.28;;;15.20;17.61
13478;BME280;12598;62.382;17.344;2023-03-04T04:05:46;100238.59;;;15.21;18.12
13478;BME280;12598;62.382;17.344;2023-03-04T04:06:48;100230.63;;;15.21;18.02
13478;BME280;12598;62.382;17.344;2023-03-04T04:07:50;100231.59;;;15.20;17.58
13478;BME280;12598;62.382;17.344;2023-03-04T04:08:54;100239.59;;;15.20;17.67
13478;BME280;12598;62.382;17.344;2023-03-04T04:09:56;100238.59;;;15.21;17.71
13478;BME280;12598;62.382;17.344;2023-03-04T04:10:58;100232.44;;;15.20;17.57
13478;BME280;12598;62.382;17.344;2023-03-04T04:12:00;100235.25;;;15.19;18.01
13478;BME280;12598;62.382;17.344;2023-03-04T04:13:02;100226.03;;;15.13;18.09
13478;BME280;12598;62.382;17.344;2023-03-04T04:14:03;100234.25;;;15.20;18.18
13478;BME280;12598;62.382;17.344;2023-03-04T04:15:06;100235.25;;;15.19;17.52
13478;BME280;12598;62.382;17.344;2023-03-04T04:16:09;100228.25;;;15.18;17.83
13478;BME280;12598;62.382;17.344;2023-03-04T04:17:11;100232.03;;;15.15;17.60
13478;BME280;12598;62.382;17.344;2023-03-04T04:18:14;100240.56;;;15.19;17.61
13478;BME280;12598;62.382;17.344;2023-03-04T04:19:18;100234.53;;;15.17;17.85
13478;BME280;12598;62.382;17.344;2023-03-04T04:20:20;100238.06;;;15.17;18.22
13478;BME280;12598;62.382;17.344;2023-03-04T04:21:24;100234.53;;;15.17;17.96
13478;BME280;12598;62.382;17.344;2023-03-04T04:22:26;100244.22;;;15.18;18.03
13478;BME280;12598;62.382;17.344;2023-03-04T04:23:28;100223.78;;;15.09;17.68
13478;BME280;12598;62.382;17.344;2023-03-04T04:24:30;100239.06;;;15.16;18.00
13478;BME280;12598;62.382;17.344;2023-03-04T04:25:32;100244.50;;;15.15;17.68
13478;BME280;12598;62.382;17.344;2023-03-04T04:26:34;100246.19;;;15.16;17.93
13478;BME280;12598;62.382;17.344;2023-03-04T04:27:36;100240.03;;;15.15;17.74
13478;BME280;12598;62.382;17.344;2023-03-04T04:28:38;100238.19;;;15.16;17.68
13478;BME280;12598;62.382;17.344;2023-03-04T04:29:40;100239.88;;;15.17;17.79
13478;BME280;12598;62.382;17.344;2023-03-04T04:30:42;100226.44;;;15.09;17.82
13478;BME280;12598;62.382;17.344;2023-03-04T04:31:44;100234.13;;;15.12;17.83
13478;BME280;12598;62.382;17.344;2023-03-04T04:32:45;100257.81;;;15.15;17.52
13478;BME280;12598;62.382;17.344;2023-03-04T04:33:47;100249.00;;;15.14;17.60
13478;BME280;12598;62.382;17.344;2023-03-04T04:34:49;100247.31;;;15.13;18.12
13478;BME280;12598;62.382;17.344;2023-03-04T04:35:51;100231.06;;;15.07;17.86
13478;BME280;12598;62.382;17.344;2023-03-04T04:36:53;100248.16;;;15.14;17.59
13478;BME280;12598;62.382;17.344;2023-03-04T04:37:54;100245.47;;;15.14;17.95
13478;BME280;12598;62.382;17.344;2023-03-04T04:38:56;100241.72;;;15.07;18.01
13478;BME280;12598;62.382;17.344;2023-03-04T04:39:58;100232.44;;;15.11;17.79
13478;BME280;12598;62.382;17.344;2023-03-04T04:41:00;100235.81;;;15.13;18.09
13478;BME280;12598;62.382;17.344;2023-03-04T04:42:02;100237.38;;;15.06;17.69
13478;BME280;12598;62.382;17.344;2023-03-04T04:43:04;100254.44;;;15.13;17.62
13478;BME280;12598;62.382;17.344;2023-03-04T04:44:06;100264.41;;;15.11;17.50
13478;BME280;12598;62.382;17.344;2023-03-04T04:45:09;100234.28;;;15.10;18.14
13478;BME280;12598;62.382;17.344;2023-03-04T04:46:11;100241.72;;;15.07;17.71
13478;BME280;12598;62.382;17.344;2023-03-04T04:47:13;100227.41;;;14.98;17.76
13478;BME280;12598;62.382;17.344;2023-03-04T04:48:15;100251.09;;;15.11;17.65
13478;BME280;12598;62.382;17.344;2023-03-04T04:49:17;100251.22;;;15.09;17.79
13478;BME280;12598;62.382;17.344;2023-03-04T04:50:19;100255.72;;;15.09;18.03
13478;BME280;12598;62.382;17.344;2023-03-04T04:51:20;100246.88;;;15.08;17.79
13478;BME280;12598;62.382;17.344;2023-03-04T04:52:22;100266.38;;;15.09;17.73
13478;BME280;12598;62.382;17.344;2023-03-04T04:53:24;100270.84;;;15.08;18.01
13478;BME280;12598;62.382;17.344;2023-03-04T04:54:26;100256.81;;;15.06;18.09
13478;BME280;12598;62.382;17.344;2023-03-04T04:55:27;100235.28;;;15.00;17.98
13478;BME280;12598;62.382;17.344;2023-03-04T04:56:30;100261.31;;;15.06;17.92
13478;BME280;12598;62.382;17.344;2023-03-04T04:57:32;100249.69;;;15.07;17.60
13478;BME280;12598;62.382;17.344;2023-03-04T04:58:35;100263.84;;;15.07;17.84
13478;BME280;12598;62.382;17.344;2023-03-04T04:59:37;100257.69;;;15.07;18.09
13478;BME280;12598;62.382;17.344;2023-03-04T05:00:39;100233.59;;;14.99;17.99
13478;BME280;12598;62.382;17.344;2023-03-04T05:01:41;100258.66;;;15.06;17.65
13478;BME280;12598;62.382;17.344;2023-03-04T05:02:43;100260.47;;;15.05;17.98
13478;BME280;12598;62.382;17.344;2023-03-04T05:03:45;100253.34;;;15.06;18.03
13478;BME280;12598;62.382;17.344;2023-03-04T05:04:47;100263.00;;;15.07;17.89
13478;BME280;12598;62.382;17.344;2023-03-04T05:05:49;100253.34;;;15.06;17.77
13478;BME280;12598;62.382;17.344;2023-03-04T05:06:51;100255.16;;;15.05;17.83
13478;BME280;12598;62.382;17.344;2023-03-04T05:07:53;100264.97;;;15.05;17.59
13478;BME280;12598;62.382;17.344;2023-03-04T05:08:57;100281.78;;;15.05;18.02
13478;BME280;12598;62.382;17.344;2023-03-04T05:09:58;100267.47;;;15.06;18.01
13478;BME280;12598;62.382;17.344;2023-03-04T05:11:01;100263.28;;;15.04;17.82
13478;BME280;12598;62.382;17.344;2023-03-04T05:12:03;100273.94;;;15.04;17.57
13478;BME280;12598;62.382;17.344;2023-03-04T05:13:05;100269.88;;;15.00;17.75
13478;BME280;12598;62.382;17.344;2023-03-04T05:14:07;100274.91;;;15.03;17.59
13478;BME280;12598;62.382;17.344;2023-03-04T05:15:09;100274.91;;;15.03;17.57
13478;BME280;12598;62.382;17.344;2023-03-04T05:16:11;100261.31;;;14.96;17.82
13478;BME280;12598;62.382;17.344;2023-03-04T05:17:14;100258.53;;;14.98;18.02
13478;BME280;12598;62.382;17.344;2023-03-04T05:18:16;100270.56;;;15.02;18.21
13478;BME280;12598;62.382;17.344;2023-03-04T05:19:19;100264.41;;;15.01;17.54
13478;BME280;12598;62.382;17.344;2023-03-04T05:20:21;100278.69;;;15.00;18.07
13478;BME280;12598;62.382;17.344;2023-03-04T05:21:24;100272.38;;;15.01;18.08
13478;BME280;12598;62.382;17.344;2023-03-04T05:22:26;100266.22;;;15.01;18.01
13478;BME280;12598;62.382;17.344;2023-03-04T05:23:31;100277.88;;;15.00;18.14
13478;BME280;12598;62.382;17.344;2023-03-04T05:24:33;100269.72;;;15.01;18.10
13478;BME280;12598;62.382;17.344;2023-03-04T05:25:38;100279.53;;;15.01;18.03
13478;BME280;12598;62.382;17.344;2023-03-04T05:26:40;100244.66;;;14.94;17.89
13478;BME280;12598;62.382;17.344;2023-03-04T05:27:42;100276.03;;;15.00;17.66